sensor_id;sensor_type;location;lat;lon;timestamp;P1;durP1;ratioP1;P2;durP2;ratioP2
73779;SDS011;62093;37.614;15.072;2023-03-31T00:00:50;4.43;;;2.00;;
73779;SDS011;62093;37.614;15.072;2023-03-31T00:03:17;4.25;;;1.92;;
73779;SDS011;62093;37.614;15.072;2023-03-31T00:05:46;4.53;;;1.80;;
73779;SDS011;62093;37.614;15.072;2023-03-31T00:08:13;4.00;;;1.88;;
73779;SDS011;62093;37.614;15.072;2023-03-31T00:11:00;5.13;;;2.00;;
73779;SDS011;62093;37.614;15.072;2023-03-31T00:13:28;4.68;;;2.00;;
73779;SDS011;62093;37.614;15.072;2023-03-31T00:15:56;4.30;;;1.85;;
73779;SDS011;62093;37.614;15.072;2023-03-31T00:18:23;5.10;;;2.20;;
73779;SDS011;62093;37.614;15.072;2023-03-31T00:20:50;4.90;;;2.28;;
73779;SDS011;62093;37.614;15.072;2023-03-31T00:23:17;4.43;;;2.10;;
73779;SDS011;62093;37.614;15.072;2023-03-31T00:25:52;5.25;;;2.25;;
73779;SDS011;62093;37.614;15.072;2023-03-31T00:28:19;5.47;;;2.20;;
73779;SDS011;62093;37.614;15.072;2023-03-31T00:30:44;5.25;;;2.33;;
73779;SDS011;62093;37.614;15.072;2023-03-31T00:33:12;5.13;;;2.00;;
73779;SDS011;62093;37.614;15.072;2023-03-31T00:35:37;4.33;;;2.10;;
73779;SDS011;62093;37.614;15.072;2023-03-31T00:38:04;4.43;;;1.92;;
73779;SDS011;62093;37.614;15.072;2023-03-31T00:40:34;5.57;;;2.15;;
73779;SDS011;62093;37.614;15.072;2023-03-31T00:43:00;4.68;;;1.90;;
73779;SDS011;62093;37.614;15.072;2023-03-31T00:45:28;4.75;;;2.08;;
73779;SDS011;62093;37.614;15.072;2023-03-31T00:50:26;5.05;;;2.25;;
73779;SDS011;62093;37.614;15.072;2023-03-31T00:52:56;4.45;;;1.95;;
73779;SDS011;62093;37.614;15.072;2023-03-31T00:55:50;4.63;;;2.03;;
73779;SDS011;62093;37.614;15.072;2023-03-31T00:58:17;4.13;;;1.80;;
73779;SDS011;62093;37.614;15.072;2023-03-31T01:00:45;4.63;;;2.33;;
73779;SDS011;62093;37.614;15.072;2023-03-31T01:03:12;4.35;;;1.80;;
73779;SDS011;62093;37.614;15.072;2023-03-31T01:05:41;4.30;;;2.03;;
73779;SDS011;62093;37.614;15.072;2023-03-31T01:08:10;5.25;;;2.08;;
73779;SDS011;62093;37.614;15.072;2023-03-31T01:10:38;4.50;;;1.92;;
73779;SDS011;62093;37.614;15.072;2023-03-31T01:13:09;4.63;;;2.00;;
73779;SDS011;62093;37.614;15.072;2023-03-31T01:15:37;5.28;;;2.10;;
73779;SDS011;62093;37.614;15.072;2023-03-31T01:18:04;4.55;;;1.80;;
73779;SDS011;62093;37.614;15.072;2023-03-31T01:30:10;4.78;;;2.10;;
73779;SDS011;62093;37.614;15.072;2023-03-31T01:43:24;4.47;;;2.10;;
73779;SDS011;62093;37.614;15.072;2023-03-31T01:48:49;4.70;;;2.00;;
73779;SDS011;62093;37.614;15.072;2023-03-31T01:54:48;4.73;;;2.13;;
73779;SDS011;62093;37.614;15.072;2023-03-31T02:00:01;4.13;;;1.70;;
73779;SDS011;62093;37.614;15.072;2023-03-31T02:02:53;4.55;;;1.90;;
73779;SDS011;62093;37.614;15.072;2023-03-31T02:05:24;4.50;;;2.10;;
73779;SDS011;62093;37.614;15.072;2023-03-31T02:07:55;4.83;;;2.00;;
73779;SDS011;62093;37.614;15.072;2023-03-31T02:10:26;5.00;;;2.10;;
73779;SDS011;62093;37.614;15.072;2023-03-31T02:12:57;5.18;;;2.00;;
73779;SDS011;62093;37.614;15.072;2023-03-31T02:15:27;5.03;;;2.00;;
73779;SDS011;62093;37.614;15.072;2023-03-31T02:17:57;4.75;;;2.05;;
73779;SDS011;62093;37.614;15.072;2023-03-31T02:20:27;4.47;;;1.90;;
73779;SDS011;62093;37.614;15.072;2023-03-31T02:22:56;4.88;;;1.80;;
73779;SDS011;62093;37.614;15.072;2023-03-31T02:25:25;4.50;;;1.77;;
73779;SDS011;62093;37.614;15.072;2023-03-31T02:27:57;4.03;;;1.65;;
73779;SDS011;62093;37.614;15.072;2023-03-31T02:30:27;4.70;;;1.70;;
73779;SDS011;62093;37.614;15.072;2023-03-31T02:32:58;4.60;;;2.10;;
73779;SDS011;62093;37.614;15.072;2023-03-31T02:35:24;3.92;;;1.70;;
73779;SDS011;62093;37.614;15.072;2023-03-31T02:37:50;5.18;;;2.20;;
73779;SDS011;62093;37.614;15.072;2023-03-31T02:40:19;4.35;;;2.00;;
73779;SDS011;62093;37.614;15.072;2023-03-31T02:42:47;4.37;;;1.87;;
73779;SDS011;62093;37.614;15.072;2023-03-31T02:48:22;4.22;;;1.85;;
73779;SDS011;62093;37.614;15.072;2023-03-31T03:05:12;5.10;;;1.52;;
73779;SDS011;62093;37.614;15.072;2023-03-31T03:10:57;4.87;;;1.90;;
73779;SDS011;62093;37.614;15.072;2023-03-31T03:19:00;4.72;;;1.80;;
73779;SDS011;62093;37.614;15.072;2023-03-31T03:21:28;4.88;;;1.88;;
73779;SDS011;62093;37.614;15.072;2023-03-31T03:23:54;5.00;;;1.73;;
73779;SDS011;62093;37.614;15.072;2023-03-31T03:26:20;3.92;;;1.75;;
73779;SDS011;62093;37.614;15.072;2023-03-31T03:28:51;3.92;;;1.75;;
73779;SDS011;62093;37.614;15.072;2023-03-31T03:31:18;5.03;;;1.90;;
73779;SDS011;62093;37.614;15.072;2023-03-31T03:33:44;4.22;;;2.10;;
73779;SDS011;62093;37.614;15.072;2023-03-31T03:36:11;5.10;;;2.00;;
73779;SDS011;62093;37.614;15.072;2023-03-31T03:38:37;4.30;;;2.08;;
73779;SDS011;62093;37.614;15.072;2023-03-31T03:41:02;4.35;;;1.88;;
73779;SDS011;62093;37.614;15.072;2023-03-31T03:43:28;4.57;;;1.90;;
73779;SDS011;62093;37.614;15.072;2023-03-31T03:45:54;4.87;;;2.30;;
73779;SDS011;62093;37.614;15.072;2023-03-31T03:48:20;5.13;;;2.58;;
73779;SDS011;62093;37.614;15.072;2023-03-31T03:50:46;5.40;;;2.47;;
73779;SDS011;62093;37.614;15.072;2023-03-31T03:53:12;4.78;;;1.90;;
73779;SDS011;62093;37.614;15.072;2023-03-31T03:55:39;4.43;;;2.00;;
73779;SDS011;62093;37.614;15.072;2023-03-31T03:58:05;5.00;;;2.38;;
73779;SDS011;62093;37.614;15.072;2023-03-31T04:00:31;4.90;;;2.20;;
73779;SDS011;62093;37.614;15.072;2023-03-31T04:02:57;4.47;;;2.05;;
73779;SDS011;62093;37.614;15.072;2023-03-31T04:05:23;5.40;;;2.50;;
73779;SDS011;62093;37.614;15.072;2023-03-31T04:07:49;4.70;;;2.22;;
73779;SDS011;62093;37.614;15.072;2023-03-31T04:10:15;4.80;;;2.50;;
73779;SDS011;62093;37.614;15.072;2023-03-31T04:12:40;5.30;;;2.22;;
73779;SDS011;62093;37.614;15.072;2023-03-31T04:15:06;5.38;;;2.75;;
73779;SDS011;62093;37.614;15.072;2023-03-31T04:17:33;6.13;;;2.25;;
73779;SDS011;62093;37.614;15.072;2023-03-31T04:19:59;4.80;;;2.30;;
73779;SDS011;62093;37.614;15.072;2023-03-31T04:22:29;5.55;;;2.22;;
73779;SDS011;62093;37.614;15.072;2023-03-31T04:25:02;5.13;;;2.20;;
73779;SDS011;62093;37.614;15.072;2023-03-31T04:27:29;4.88;;;2.30;;
73779;SDS011;62093;37.614;15.072;2023-03-31T04:29:58;5.10;;;2.70;;
73779;SDS011;62093;37.614;15.072;2023-03-31T04:32:23;5.33;;;2.40;;
73779;SDS011;62093;37.614;15.072;2023-03-31T04:34:49;5.63;;;2.50;;
73779;SDS011;62093;37.614;15.072;2023-03-31T04:37:16;5.07;;;2.20;;
73779;SDS011;62093;37.614;15.072;2023-03-31T04:39:41;5.50;;;2.35;;
73779;SDS011;62093;37.614;15.072;2023-03-31T04:42:11;4.60;;;1.92;;
73779;SDS011;62093;37.614;15.072;2023-03-31T04:44:37;4.82;;;2.22;;
73779;SDS011;62093;37.614;15.072;2023-03-31T04:47:03;4.50;;;2.13;;
73779;SDS011;62093;37.614;15.072;2023-03-31T04:49:31;5.20;;;2.15;;
73779;SDS011;62093;37.614;15.072;2023-03-31T04:51:57;6.03;;;2.10;;
73779;SDS011;62093;37.614;15.072;2023-03-31T04:54:23;4.85;;;2.40;;
73779;SDS011;62093;37.614;15.072;2023-03-31T04:56:49;5.23;;;2.33;;
73779;SDS011;62093;37.614;15.072;2023-03-31T04:59:15;6.03;;;2.53;;
73779;SDS011;62093;37.614;15.072;2023-03-31T05:01:41;6.27;;;2.40;;
73779;SDS011;62093;37.614;15.072;2023-03-31T05:04:09;5.70;;;2.30;;
73779;SDS011;62093;37.614;15.072;2023-03-31T05:06:35;4.75;;;2.13;;
73779;SDS011;62093;37.614;15.072;2023-03-31T05:09:01;4.70;;;2.33;;
73779;SDS011;62093;37.614;15.072;2023-03-31T05:11:27;5.40;;;2.50;;
73779;SDS011;62093;37.614;15.072;2023-03-31T05:13:53;5.38;;;2.70;;
73779;SDS011;62093;37.614;15.072;2023-03-31T05:16:19;5.65;;;2.80;;
73779;SDS011;62093;37.614;15.072;2023-03-31T05:18:45;5.82;;;2.38;;
73779;SDS011;62093;37.614;15.072;2023-03-31T05:21:12;6.13;;;2.53;;
73779;SDS011;62093;37.614;15.072;2023-03-31T05:23:40;5.97;;;2.80;;
73779;SDS011;62093;37.614;15.072;2023-03-31T05:26:06;4.93;;;2.38;;
73779;SDS011;62093;37.614;15.072;2023-03-31T05:28:33;4.82;;;2.38;;
73779;SDS011;62093;37.614;15.072;2023-03-31T05:31:00;7.20;;;2.60;;
73779;SDS011;62093;37.614;15.072;2023-03-31T05:33:27;5.30;;;2.60;;
73779;SDS011;62093;37.614;15.072;2023-03-31T05:35:53;5.05;;;2.38;;
73779;SDS011;62093;37.614;15.072;2023-03-31T05:38:20;5.60;;;2.50;;
73779;SDS011;62093;37.614;15.072;2023-03-31T05:40:46;4.97;;;2.40;;
73779;SDS011;62093;37.614;15.072;2023-03-31T05:43:12;5.70;;;2.60;;
73779;SDS011;62093;37.614;15.072;2023-03-31T05:45:38;5.40;;;2.43;;
73779;SDS011;62093;37.614;15.072;2023-03-31T05:48:04;6.45;;;2.40;;
73779;SDS011;62093;37.614;15.072;2023-03-31T05:50:30;5.40;;;2.42;;
73779;SDS011;62093;37.614;15.072;2023-03-31T05:52:56;5.37;;;2.30;;
73779;SDS011;62093;37.614;15.072;2023-03-31T05:55:22;5.68;;;2.53;;
73779;SDS011;62093;37.614;15.072;2023-03-31T05:57:48;5.05;;;2.60;;
73779;SDS011;62093;37.614;15.072;2023-03-31T06:00:13;4.37;;;2.10;;
73779;SDS011;62093;37.614;15.072;2023-03-31T06:02:39;4.65;;;2.40;;
73779;SDS011;62093;37.614;15.072;2023-03-31T06:05:06;5.70;;;2.50;;
73779;SDS011;62093;37.614;15.072;2023-03-31T06:07:32;5.82;;;2.50;;
73779;SDS011;62093;37.614;15.072;2023-03-31T06:09:58;5.80;;;2.73;;
73779;SDS011;62093;37.614;15.072;2023-03-31T06:12:23;5.03;;;2.33;;
73779;SDS011;62093;37.614;15.072;2023-03-31T06:14:49;5.45;;;2.60;;
73779;SDS011;62093;37.614;15.072;2023-03-31T06:17:15;5.30;;;2.60;;
73779;SDS011;62093;37.614;15.072;2023-03-31T06:19:41;5.65;;;2.40;;
73779;SDS011;62093;37.614;15.072;2023-03-31T06:22:07;5.60;;;2.60;;
73779;SDS011;62093;37.614;15.072;2023-03-31T06:24:32;4.90;;;2.20;;
73779;SDS011;62093;37.614;15.072;2023-03-31T06:26:58;5.43;;;2.40;;
73779;SDS011;62093;37.614;15.072;2023-03-31T06:29:25;5.03;;;2.38;;
73779;SDS011;62093;37.614;15.072;2023-03-31T06:31:52;5.30;;;2.30;;
73779;SDS011;62093;37.614;15.072;2023-03-31T06:34:17;5.00;;;2.42;;
73779;SDS011;62093;37.614;15.072;2023-03-31T06:36:43;5.75;;;2.30;;
73779;SDS011;62093;37.614;15.072;2023-03-31T06:39:09;6.77;;;2.30;;
73779;SDS011;62093;37.614;15.072;2023-03-31T06:41:35;5.10;;;2.40;;
73779;SDS011;62093;37.614;15.072;2023-03-31T06:44:01;4.88;;;2.28;;
73779;SDS011;62093;37.614;15.072;2023-03-31T06:46:27;5.63;;;2.17;;
73779;SDS011;62093;37.614;15.072;2023-03-31T06:48:53;5.07;;;2.40;;
73779;SDS011;62093;37.614;15.072;2023-03-31T06:51:19;4.85;;;2.47;;
73779;SDS011;62093;37.614;15.072;2023-03-31T06:53:45;5.55;;;2.70;;
73779;SDS011;62093;37.614;15.072;2023-03-31T06:56:11;4.83;;;2.10;;
73779;SDS011;62093;37.614;15.072;2023-03-31T06:58:37;5.00;;;2.17;;
73779;SDS011;62093;37.614;15.072;2023-03-31T07:01:03;4.80;;;2.23;;
73779;SDS011;62093;37.614;15.072;2023-03-31T07:03:30;5.03;;;2.47;;
73779;SDS011;62093;37.614;15.072;2023-03-31T07:05:56;5.47;;;2.42;;
73779;SDS011;62093;37.614;15.072;2023-03-31T07:08:22;5.60;;;2.17;;
73779;SDS011;62093;37.614;15.072;2023-03-31T07:10:57;5.47;;;2.45;;
73779;SDS011;62093;37.614;15.072;2023-03-31T07:13:24;4.80;;;2.50;;
73779;SDS011;62093;37.614;15.072;2023-03-31T07:15:51;4.68;;;2.20;;
73779;SDS011;62093;37.614;15.072;2023-03-31T07:18:17;5.25;;;2.20;;
73779;SDS011;62093;37.614;15.072;2023-03-31T07:20:46;4.63;;;2.17;;
73779;SDS011;62093;37.614;15.072;2023-03-31T07:23:12;6.28;;;2.50;;
73779;SDS011;62093;37.614;15.072;2023-03-31T07:25:38;5.20;;;2.10;;
73779;SDS011;62093;37.614;15.072;2023-03-31T07:28:04;4.90;;;2.30;;
73779;SDS011;62093;37.614;15.072;2023-03-31T07:30:31;4.97;;;2.17;;
73779;SDS011;62093;37.614;15.072;2023-03-31T07:32:57;4.32;;;2.00;;
73779;SDS011;62093;37.614;15.072;2023-03-31T07:35:23;4.50;;;2.30;;
73779;SDS011;62093;37.614;15.072;2023-03-31T07:37:49;5.15;;;2.38;;
73779;SDS011;62093;37.614;15.072;2023-03-31T07:40:20;5.05;;;2.10;;
73779;SDS011;62093;37.614;15.072;2023-03-31T07:42:49;4.80;;;2.20;;
73779;SDS011;62093;37.614;15.072;2023-03-31T07:45:16;4.82;;;2.10;;
73779;SDS011;62093;37.614;15.072;2023-03-31T07:47:44;4.73;;;2.17;;
73779;SDS011;62093;37.614;15.072;2023-03-31T07:50:11;4.97;;;2.30;;
73779;SDS011;62093;37.614;15.072;2023-03-31T07:52:38;4.63;;;2.28;;
73779;SDS011;62093;37.614;15.072;2023-03-31T07:55:04;4.68;;;2.40;;
73779;SDS011;62093;37.614;15.072;2023-03-31T07:57:32;4.60;;;2.20;;
73779;SDS011;62093;37.614;15.072;2023-03-31T07:59:58;4.97;;;2.17;;
73779;SDS011;62093;37.614;15.072;2023-03-31T08:02:24;4.78;;;2.50;;
73779;SDS011;62093;37.614;15.072;2023-03-31T08:04:50;5.00;;;2.08;;
73779;SDS011;62093;37.614;15.072;2023-03-31T08:07:16;4.63;;;2.00;;
73779;SDS011;62093;37.614;15.072;2023-03-31T08:09:42;5.03;;;2.40;;
73779;SDS011;62093;37.614;15.072;2023-03-31T08:12:10;4.75;;;2.30;;
73779;SDS011;62093;37.614;15.072;2023-03-31T08:14:36;4.88;;;2.22;;
73779;SDS011;62093;37.614;15.072;2023-03-31T08:17:02;5.30;;;2.10;;
73779;SDS011;62093;37.614;15.072;2023-03-31T08:19:28;4.55;;;2.20;;
73779;SDS011;62093;37.614;15.072;2023-03-31T08:21:54;4.30;;;2.30;;
73779;SDS011;62093;37.614;15.072;2023-03-31T08:24:20;4.37;;;2.07;;
73779;SDS011;62093;37.614;15.072;2023-03-31T08:26:46;4.40;;;2.13;;
73779;SDS011;62093;37.614;15.072;2023-03-31T08:29:12;4.68;;;2.30;;
73779;SDS011;62093;37.614;15.072;2023-03-31T08:31:38;4.80;;;2.22;;
73779;SDS011;62093;37.614;15.072;2023-03-31T08:34:04;5.00;;;2.17;;
73779;SDS011;62093;37.614;15.072;2023-03-31T08:36:30;5.05;;;2.25;;
73779;SDS011;62093;37.614;15.072;2023-03-31T08:38:56;4.90;;;2.40;;
73779;SDS011;62093;37.614;15.072;2023-03-31T08:43:56;4.80;;;2.10;;
73779;SDS011;62093;37.614;15.072;2023-03-31T08:46:27;4.60;;;2.05;;
73779;SDS011;62093;37.614;15.072;2023-03-31T08:48:55;4.68;;;2.50;;
73779;SDS011;62093;37.614;15.072;2023-03-31T08:54:14;4.82;;;2.20;;
73779;SDS011;62093;37.614;15.072;2023-03-31T08:56:45;5.37;;;2.20;;
73779;SDS011;62093;37.614;15.072;2023-03-31T08:59:26;4.93;;;2.63;;
73779;SDS011;62093;37.614;15.072;2023-03-31T09:05:04;4.45;;;1.90;;
73779;SDS011;62093;37.614;15.072;2023-03-31T09:18:58;5.25;;;2.03;;
73779;SDS011;62093;37.614;15.072;2023-03-31T09:21:37;4.60;;;2.10;;
73779;SDS011;62093;37.614;15.072;2023-03-31T09:24:22;3.90;;;1.87;;
73779;SDS011;62093;37.614;15.072;2023-03-31T09:27:05;4.78;;;2.03;;
73779;SDS011;62093;37.614;15.072;2023-03-31T09:29:41;4.70;;;2.33;;
73779;SDS011;62093;37.614;15.072;2023-03-31T09:32:20;4.95;;;2.38;;
73779;SDS011;62093;37.614;15.072;2023-03-31T09:34:51;4.75;;;2.00;;
73779;SDS011;62093;37.614;15.072;2023-03-31T09:37:21;4.90;;;2.30;;
73779;SDS011;62093;37.614;15.072;2023-03-31T09:39:49;5.07;;;2.53;;
73779;SDS011;62093;37.614;15.072;2023-03-31T09:42:15;4.72;;;2.00;;
73779;SDS011;62093;37.614;15.072;2023-03-31T09:44:46;5.05;;;2.22;;
73779;SDS011;62093;37.614;15.072;2023-03-31T09:50:05;5.20;;;2.00;;
73779;SDS011;62093;37.614;15.072;2023-03-31T09:52:33;5.25;;;2.08;;
73779;SDS011;62093;37.614;15.072;2023-03-31T09:57:48;4.75;;;2.10;;
73779;SDS011;62093;37.614;15.072;2023-03-31T10:00:15;4.67;;;2.03;;
73779;SDS011;62093;37.614;15.072;2023-03-31T10:02:48;4.40;;;1.92;;
73779;SDS011;62093;37.614;15.072;2023-03-31T10:13:41;4.53;;;2.03;;
73779;SDS011;62093;37.614;15.072;2023-03-31T10:16:09;4.68;;;2.10;;
73779;SDS011;62093;37.614;15.072;2023-03-31T10:18:39;4.97;;;1.90;;
73779;SDS011;62093;37.614;15.072;2023-03-31T10:21:14;5.45;;;2.10;;
73779;SDS011;62093;37.614;15.072;2023-03-31T10:23:45;4.93;;;2.28;;
73779;SDS011;62093;37.614;15.072;2023-03-31T10:26:13;4.43;;;2.07;;
73779;SDS011;62093;37.614;15.072;2023-03-31T10:28:42;4.78;;;2.13;;
73779;SDS011;62093;37.614;15.072;2023-03-31T10:31:08;4.50;;;2.20;;
73779;SDS011;62093;37.614;15.072;2023-03-31T10:33:37;4.22;;;1.85;;
73779;SDS011;62093;37.614;15.072;2023-03-31T10:36:18;6.18;;;2.33;;
73779;SDS011;62093;37.614;15.072;2023-03-31T10:38:54;5.70;;;2.00;;
73779;SDS011;62093;37.614;15.072;2023-03-31T10:41:22;5.45;;;2.10;;
73779;SDS011;62093;37.614;15.072;2023-03-31T10:46:20;4.50;;;2.20;;
73779;SDS011;62093;37.614;15.072;2023-03-31T10:49:13;4.95;;;1.90;;
73779;SDS011;62093;37.614;15.072;2023-03-31T10:51:55;7.00;;;2.20;;
73779;SDS011;62093;37.614;15.072;2023-03-31T10:54:22;5.72;;;2.20;;
73779;SDS011;62093;37.614;15.072;2023-03-31T10:56:50;4.43;;;2.13;;
73779;SDS011;62093;37.614;15.072;2023-03-31T11:10:14;5.20;;;2.00;;
73779;SDS011;62093;37.614;15.072;2023-03-31T11:21:41;6.75;;;2.10;;
73779;SDS011;62093;37.614;15.072;2023-03-31T11:23:39;5.45;;;2.22;;
73779;SDS011;62093;37.614;15.072;2023-03-31T11:29:16;5.68;;;2.20;;
73779;SDS011;62093;37.614;15.072;2023-03-31T11:48:48;5.47;;;2.03;;
73779;SDS011;62093;37.614;15.072;2023-03-31T11:51:25;5.72;;;2.08;;
73779;SDS011;62093;37.614;15.072;2023-03-31T11:53:56;6.57;;;2.03;;
73779;SDS011;62093;37.614;15.072;2023-03-31T11:56:35;4.72;;;1.88;;
73779;SDS011;62093;37.614;15.072;2023-03-31T11:59:04;6.53;;;2.20;;
73779;SDS011;62093;37.614;15.072;2023-03-31T12:01:47;6.13;;;1.95;;
73779;SDS011;62093;37.614;15.072;2023-03-31T12:07:03;4.40;;;1.70;;
73779;SDS011;62093;37.614;15.072;2023-03-31T12:09:57;4.22;;;2.30;;
73779;SDS011;62093;37.614;15.072;2023-03-31T12:12:31;4.60;;;1.75;;
73779;SDS011;62093;37.614;15.072;2023-03-31T12:15:18;4.70;;;1.58;;
73779;SDS011;62093;37.614;15.072;2023-03-31T12:18:08;4.85;;;1.70;;
73779;SDS011;62093;37.614;15.072;2023-03-31T12:20:40;4.40;;;1.77;;
73779;SDS011;62093;37.614;15.072;2023-03-31T12:23:12;4.60;;;1.80;;
73779;SDS011;62093;37.614;15.072;2023-03-31T12:25:52;5.13;;;2.08;;
73779;SDS011;62093;37.614;15.072;2023-03-31T12:28:19;4.70;;;1.85;;
73779;SDS011;62093;37.614;15.072;2023-03-31T12:30:46;4.95;;;2.00;;
73779;SDS011;62093;37.614;15.072;2023-03-31T12:33:21;6.23;;;2.27;;
73779;SDS011;62093;37.614;15.072;2023-03-31T12:38:54;4.68;;;1.85;;
73779;SDS011;62093;37.614;15.072;2023-03-31T12:41:23;4.80;;;1.60;;
73779;SDS011;62093;37.614;15.072;2023-03-31T12:55:53;5.28;;;1.70;;
73779;SDS011;62093;37.614;15.072;2023-03-31T13:06:02;4.45;;;1.73;;
73779;SDS011;62093;37.614;15.072;2023-03-31T13:16:44;4.00;;;1.77;;
73779;SDS011;62093;37.614;15.072;2023-03-31T13:19:11;5.47;;;1.83;;
73779;SDS011;62093;37.614;15.072;2023-03-31T13:21:59;4.88;;;1.70;;
73779;SDS011;62093;37.614;15.072;2023-03-31T13:24:30;7.03;;;1.88;;
73779;SDS011;62093;37.614;15.072;2023-03-31T13:26:57;4.57;;;1.73;;
73779;SDS011;62093;37.614;15.072;2023-03-31T13:29:43;4.53;;;1.70;;
73779;SDS011;62093;37.614;15.072;2023-03-31T13:35:00;4.40;;;1.48;;
73779;SDS011;62093;37.614;15.072;2023-03-31T13:48:13;4.90;;;1.80;;
73779;SDS011;62093;37.614;15.072;2023-03-31T13:51:44;4.55;;;1.60;;
73779;SDS011;62093;37.614;15.072;2023-03-31T14:11:21;4.65;;;1.60;;
73779;SDS011;62093;37.614;15.072;2023-03-31T14:13:58;4.97;;;1.63;;
73779;SDS011;62093;37.614;15.072;2023-03-31T14:16:24;4.28;;;1.48;;
73779;SDS011;62093;37.614;15.072;2023-03-31T14:18:51;5.05;;;1.75;;
73779;SDS011;62093;37.614;15.072;2023-03-31T14:21:34;4.03;;;1.50;;
73779;SDS011;62093;37.614;15.072;2023-03-31T14:26:57;4.47;;;1.83;;
73779;SDS011;62093;37.614;15.072;2023-03-31T14:32:06;4.43;;;1.60;;
73779;SDS011;62093;37.614;15.072;2023-03-31T14:35:41;4.40;;;1.77;;
73779;SDS011;62093;37.614;15.072;2023-03-31T14:37:51;5.15;;;1.67;;
73779;SDS011;62093;37.614;15.072;2023-03-31T14:40:18;5.35;;;1.63;;
73779;SDS011;62093;37.614;15.072;2023-03-31T14:42:45;3.95;;;1.60;;
73779;SDS011;62093;37.614;15.072;2023-03-31T14:45:15;4.45;;;1.70;;
73779;SDS011;62093;37.614;15.072;2023-03-31T14:47:56;4.90;;;1.50;;
73779;SDS011;62093;37.614;15.072;2023-03-31T14:50:30;4.43;;;1.50;;
73779;SDS011;62093;37.614;15.072;2023-03-31T14:52:59;5.40;;;1.60;;
73779;SDS011;62093;37.614;15.072;2023-03-31T14:55:30;4.43;;;1.50;;
73779;SDS011;62093;37.614;15.072;2023-03-31T14:57:58;4.45;;;1.63;;
73779;SDS011;62093;37.614;15.072;2023-03-31T15:00:30;3.90;;;1.37;;
73779;SDS011;62093;37.614;15.072;2023-03-31T15:02:58;4.20;;;1.83;;
73779;SDS011;62093;37.614;15.072;2023-03-31T15:05:30;4.55;;;1.90;;
73779;SDS011;62093;37.614;15.072;2023-03-31T15:07:58;5.40;;;1.38;;
73779;SDS011;62093;37.614;15.072;2023-03-31T15:10:29;4.60;;;1.60;;
73779;SDS011;62093;37.614;15.072;2023-03-31T15:13:01;4.53;;;1.50;;
73779;SDS011;62093;37.614;15.072;2023-03-31T15:15:35;3.85;;;1.20;;
73779;SDS011;62093;37.614;15.072;2023-03-31T15:18:01;4.93;;;1.80;;
73779;SDS011;62093;37.614;15.072;2023-03-31T15:20:29;4.50;;;1.50;;
73779;SDS011;62093;37.614;15.072;2023-03-31T15:22:59;5.32;;;1.52;;
73779;SDS011;62093;37.614;15.072;2023-03-31T15:25:31;4.43;;;1.50;;
73779;SDS011;62093;37.614;15.072;2023-03-31T15:28:03;4.18;;;1.42;;
73779;SDS011;62093;37.614;15.072;2023-03-31T15:30:31;4.65;;;1.60;;
73779;SDS011;62093;37.614;15.072;2023-03-31T15:32:57;4.25;;;1.55;;
73779;SDS011;62093;37.614;15.072;2023-03-31T15:37:57;3.73;;;1.60;;
73779;SDS011;62093;37.614;15.072;2023-03-31T15:40:29;4.80;;;1.55;;
73779;SDS011;62093;37.614;15.072;2023-03-31T15:42:57;4.57;;;1.60;;
73779;SDS011;62093;37.614;15.072;2023-03-31T15:48:21;5.57;;;1.60;;
73779;SDS011;62093;37.614;15.072;2023-03-31T15:51:00;4.50;;;1.53;;
73779;SDS011;62093;37.614;15.072;2023-03-31T15:53:31;5.68;;;1.88;;
73779;SDS011;62093;37.614;15.072;2023-03-31T15:56:09;4.15;;;1.60;;
73779;SDS011;62093;37.614;15.072;2023-03-31T16:01:46;3.80;;;1.20;;
73779;SDS011;62093;37.614;15.072;2023-03-31T16:04:14;5.43;;;1.60;;
73779;SDS011;62093;37.614;15.072;2023-03-31T16:07:00;3.88;;;1.60;;
73779;SDS011;62093;37.614;15.072;2023-03-31T16:12:20;3.70;;;1.30;;
73779;SDS011;62093;37.614;15.072;2023-03-31T16:14:51;4.30;;;1.50;;
73779;SDS011;62093;37.614;15.072;2023-03-31T16:19:59;4.50;;;1.40;;
73779;SDS011;62093;37.614;15.072;2023-03-31T16:22:37;4.35;;;1.40;;
73779;SDS011;62093;37.614;15.072;2023-03-31T16:25:08;4.43;;;1.60;;
73779;SDS011;62093;37.614;15.072;2023-03-31T16:27:38;4.30;;;1.58;;
73779;SDS011;62093;37.614;15.072;2023-03-31T16:30:11;5.80;;;1.80;;
73779;SDS011;62093;37.614;15.072;2023-03-31T16:32:57;5.35;;;1.60;;
73779;SDS011;62093;37.614;15.072;2023-03-31T16:35:41;5.45;;;1.80;;
73779;SDS011;62093;37.614;15.072;2023-03-31T16:38:09;4.55;;;1.40;;
73779;SDS011;62093;37.614;15.072;2023-03-31T16:40:40;4.75;;;1.30;;
73779;SDS011;62093;37.614;15.072;2023-03-31T16:45:42;4.20;;;1.60;;
73779;SDS011;62093;37.614;15.072;2023-03-31T16:48:09;4.70;;;1.45;;
73779;SDS011;62093;37.614;15.072;2023-03-31T16:50:36;4.30;;;1.50;;
73779;SDS011;62093;37.614;15.072;2023-03-31T16:53:01;4.70;;;1.50;;
73779;SDS011;62093;37.614;15.072;2023-03-31T16:55:28;4.75;;;1.40;;
73779;SDS011;62093;37.614;15.072;2023-03-31T16:57:56;5.05;;;1.58;;
73779;SDS011;62093;37.614;15.072;2023-03-31T17:00:30;4.32;;;1.55;;
73779;SDS011;62093;37.614;15.072;2023-03-31T17:02:58;4.77;;;1.30;;
73779;SDS011;62093;37.614;15.072;2023-03-31T17:05:26;4.53;;;1.67;;
73779;SDS011;62093;37.614;15.072;2023-03-31T17:07:53;4.70;;;1.50;;
73779;SDS011;62093;37.614;15.072;2023-03-31T17:10:19;5.50;;;1.80;;
73779;SDS011;62093;37.614;15.072;2023-03-31T17:12:45;8.27;;;2.38;;
73779;SDS011;62093;37.614;15.072;2023-03-31T17:15:11;6.17;;;2.50;;
73779;SDS011;62093;37.614;15.072;2023-03-31T17:17:37;7.57;;;2.78;;
73779;SDS011;62093;37.614;15.072;2023-03-31T17:20:04;10.90;;;3.50;;
73779;SDS011;62093;37.614;15.072;2023-03-31T17:22:31;8.43;;;2.70;;
73779;SDS011;62093;37.614;15.072;2023-03-31T17:24:57;7.65;;;2.50;;
73779;SDS011;62093;37.614;15.072;2023-03-31T17:27:24;8.55;;;3.13;;
73779;SDS011;62093;37.614;15.072;2023-03-31T17:29:50;9.02;;;2.97;;
73779;SDS011;62093;37.614;15.072;2023-03-31T17:32:16;9.50;;;3.10;;
73779;SDS011;62093;37.614;15.072;2023-03-31T17:34:43;6.77;;;2.87;;
73779;SDS011;62093;37.614;15.072;2023-03-31T17:37:09;7.57;;;2.45;;
73779;SDS011;62093;37.614;15.072;2023-03-31T17:39:35;8.52;;;3.15;;
73779;SDS011;62093;37.614;15.072;2023-03-31T17:42:01;11.77;;;3.87;;
73779;SDS011;62093;37.614;15.072;2023-03-31T17:44:28;7.15;;;3.20;;
73779;SDS011;62093;37.614;15.072;2023-03-31T17:46:54;9.10;;;3.10;;
73779;SDS011;62093;37.614;15.072;2023-03-31T17:49:20;11.13;;;4.28;;
73779;SDS011;62093;37.614;15.072;2023-03-31T17:51:46;9.23;;;3.80;;
73779;SDS011;62093;37.614;15.072;2023-03-31T17:54:12;10.18;;;4.03;;
73779;SDS011;62093;37.614;15.072;2023-03-31T17:56:37;12.70;;;4.97;;
73779;SDS011;62093;37.614;15.072;2023-03-31T17:59:03;12.13;;;6.07;;
73779;SDS011;62093;37.614;15.072;2023-03-31T18:01:29;11.80;;;6.38;;
73779;SDS011;62093;37.614;15.072;2023-03-31T18:03:56;15.15;;;5.15;;
73779;SDS011;62093;37.614;15.072;2023-03-31T18:06:22;11.93;;;4.60;;
73779;SDS011;62093;37.614;15.072;2023-03-31T18:08:49;10.63;;;3.43;;
73779;SDS011;62093;37.614;15.072;2023-03-31T18:11:15;9.02;;;3.30;;
73779;SDS011;62093;37.614;15.072;2023-03-31T18:13:41;10.20;;;3.88;;
73779;SDS011;62093;37.614;15.072;2023-03-31T18:16:08;10.00;;;4.28;;
73779;SDS011;62093;37.614;15.072;2023-03-31T18:18:36;12.95;;;4.50;;
73779;SDS011;62093;37.614;15.072;2023-03-31T18:21:03;16.07;;;6.00;;
73779;SDS011;62093;37.614;15.072;2023-03-31T18:23:32;16.05;;;6.85;;
73779;SDS011;62093;37.614;15.072;2023-03-31T18:25:59;13.00;;;7.63;;